createdAt,value
2023-02-27T00:12:25.966Z,0.62
2023-02-27T00:13:26.053Z,0.71
2023-02-27T00:14:26.109Z,0.76
2023-02-27T00:15:26.154Z,0.76
2023-02-27T00:16:26.274Z,0.62
2023-02-27T00:17:26.348Z,0.63
2023-02-27T00:18:26.316Z,0.78
2023-02-27T00:19:26.388Z,0.60
2023-02-27T00:20:26.462Z,0.83
2023-02-27T00:21:26.894Z,0.72
2023-02-27T00:22:26.578Z,0.72
2023-02-27T00:23:26.635Z,0.81
2023-02-27T00:24:26.715Z,0.83
2023-02-27T00:25:26.758Z,0.67
2023-02-27T00:26:26.825Z,0.55
2023-02-27T00:27:26.878Z,0.55
2023-02-27T00:28:26.925Z,0.65
2023-02-27T00:29:26.979Z,0.69
2023-02-27T00:30:27.075Z,0.79
2023-02-27T00:31:27.436Z,0.59
2023-02-27T00:32:27.202Z,0.79
2023-02-27T00:33:27.213Z,0.66
2023-02-27T00:34:27.280Z,0.75
2023-02-27T00:35:28.324Z,0.60
2023-02-27T00:36:27.455Z,0.73
2023-02-27T00:37:27.459Z,0.80
2023-02-27T00:38:27.572Z,0.79
2023-02-27T00:39:27.623Z,0.77
2023-02-27T00:40:27.625Z,0.66
2023-02-27T00:56:28.579Z,0.90
2023-02-27T00:57:28.690Z,0.69
2023-02-27T00:58:28.707Z,0.63
2023-02-27T00:59:28.770Z,0.76
2023-02-27T01:00:28.871Z,0.80
2023-02-27T01:01:29.043Z,0.73
2023-02-27T01:02:28.976Z,0.76
2023-02-27T01:03:28.996Z,0.59
2023-02-27T01:04:29.049Z,0.77
2023-02-27T01:05:29.109Z,0.79
2023-02-27T01:06:29.182Z,0.74
2023-02-27T01:07:29.235Z,0.81
2023-02-27T01:08:29.284Z,0.82
2023-02-27T01:09:29.343Z,0.64
2023-02-27T01:10:29.399Z,0.80
2023-02-27T01:11:29.461Z,0.88
2023-02-27T01:12:29.531Z,0.65
2023-02-27T01:13:29.576Z,0.80
2023-02-27T01:14:29.642Z,0.93
2023-02-27T01:15:29.711Z,0.51
2023-02-27T01:16:29.865Z,0.62
2023-02-27T01:17:29.838Z,0.53
2023-02-27T01:18:29.889Z,0.56
2023-02-27T01:19:30.035Z,0.70
2023-02-27T01:20:30.027Z,0.49
2023-02-27T01:21:30.056Z,0.75
2023-02-27T01:22:30.111Z,0.54
2023-02-27T01:23:30.221Z,0.66
2023-02-27T01:24:30.214Z,0.85
2023-02-27T01:25:30.286Z,0.57
2023-02-27T01:26:31.350Z,0.97
2023-02-27T01:27:30.408Z,0.80
2023-02-27T01:28:30.477Z,0.73
2023-02-27T01:29:30.535Z,0.50
2023-02-27T01:30:31.447Z,0.90
2023-02-27T01:31:30.762Z,0.76
2023-02-27T01:32:30.805Z,0.72
2023-02-27T01:33:30.783Z,0.70
2023-02-27T01:34:32.789Z,0.71
2023-02-27T01:35:30.953Z,0.76
2023-02-27T01:36:30.831Z,0.72
2023-02-27T01:37:30.823Z,0.67
2023-02-27T01:38:30.876Z,0.78
2023-02-27T01:39:30.806Z,0.55
2023-02-27T01:40:30.803Z,0.79
2023-02-27T01:41:30.884Z,0.60
2023-02-27T01:42:30.856Z,0.80
2023-02-27T01:43:30.860Z,0.75
2023-02-27T01:44:30.776Z,0.66
2023-02-27T01:45:30.832Z,0.68
2023-02-27T01:46:30.759Z,0.84
2023-02-27T01:47:30.782Z,0.79
2023-02-27T01:48:30.754Z,0.68
2023-02-27T01:49:30.741Z,0.89
2023-02-27T01:50:30.726Z,0.64
2023-02-27T01:51:31.353Z,0.54
2023-02-27T01:52:30.717Z,0.67
2023-02-27T01:53:30.711Z,0.56
2023-02-27T01:54:30.706Z,0.71
2023-02-27T01:55:30.692Z,0.66
2023-02-27T01:56:30.682Z,0.79
2023-02-27T01:57:30.699Z,0.62
2023-02-27T01:58:30.674Z,0.90
2023-02-27T01:59:30.674Z,0.83
2023-02-27T02:00:30.677Z,0.68
2023-02-27T02:01:30.688Z,0.57
2023-02-27T02:02:30.693Z,0.54
2023-02-27T02:03:30.650Z,0.61
2023-02-27T02:04:30.644Z,0.71
2023-02-27T02:05:30.698Z,0.69
2023-02-27T02:06:31.363Z,0.88
2023-02-27T02:07:30.625Z,0.57
2023-02-27T02:08:30.633Z,0.71
2023-02-27T02:09:30.710Z,0.63
2023-02-27T02:10:30.761Z,0.58
2023-02-27T02:11:30.824Z,0.62
2023-02-27T02:12:30.884Z,0.84
2023-02-27T02:13:30.950Z,0.68
2023-02-27T02:14:30.973Z,0.72
2023-02-27T02:15:31.040Z,0.84
2023-02-27T02:16:31.194Z,0.88
2023-02-27T02:17:31.148Z,0.83
2023-02-27T02:18:31.191Z,0.68
2023-02-27T02:19:31.249Z,0.61
2023-02-27T04:11:35.940Z,0.67
2023-02-27T04:12:35.962Z,0.78
2023-02-27T04:13:35.984Z,0.68
2023-02-27T04:14:36.012Z,0.54
2023-02-27T04:15:36.046Z,0.69
2023-02-27T04:16:36.091Z,0.88
2023-02-27T04:17:36.103Z,0.89
2023-02-27T04:18:36.123Z,0.79
2023-02-27T04:19:36.160Z,0.77
2023-02-27T04:20:36.187Z,0.69
2023-02-27T04:21:36.407Z,0.96
2023-02-27T04:22:36.259Z,0.65
2023-02-27T04:23:36.263Z,0.72
2023-02-27T04:24:36.312Z,0.89
2023-02-27T04:25:36.322Z,0.64
2023-02-27T04:26:36.343Z,0.70
2023-02-27T04:27:36.426Z,0.76
2023-02-27T04:28:36.401Z,0.58
2023-02-27T04:29:36.433Z,0.63
2023-02-27T04:30:36.470Z,0.88
2023-02-27T04:31:37.028Z,0.57
2023-02-27T04:32:36.602Z,0.84
2023-02-27T04:33:36.540Z,0.82
2023-02-27T04:34:36.564Z,0.68
2023-02-27T04:35:37.416Z,0.80
2023-02-27T04:36:36.617Z,0.78
2023-02-27T04:37:36.641Z,0.77
2023-02-27T04:38:36.667Z,0.86
2023-02-27T04:39:36.686Z,0.63
2023-02-27T04:40:36.709Z,0.58
2023-02-27T04:41:36.746Z,0.71
2023-02-27T04:42:36.765Z,0.93
2023-02-27T04:43:36.796Z,0.66
2023-02-27T04:44:36.829Z,0.53
2023-02-27T04:45:36.867Z,0.71
2023-02-27T04:46:37.001Z,0.68
2023-02-27T04:47:36.904Z,0.70
2023-02-27T04:48:36.931Z,0.81
2023-02-27T04:49:36.957Z,0.79
2023-02-27T04:50:36.990Z,0.67
2023-02-27T04:51:37.031Z,0.78
2023-02-27T04:52:37.053Z,0.82
2023-02-27T04:53:37.087Z,0.71
2023-02-27T04:54:37.109Z,0.71
2023-02-27T04:55:37.147Z,0.54
2023-02-27T04:57:37.215Z,0.87
2023-02-27T04:58:37.242Z,0.88
2023-02-27T04:59:37.284Z,0.71
2023-02-27T05:00:37.314Z,0.89
2023-02-27T05:02:37.471Z,0.57
2023-02-27T05:03:37.391Z,0.80
2023-02-27T05:04:37.447Z,0.74
2023-02-27T05:41:38.621Z,0.82
2023-02-27T05:42:38.622Z,1.02
2023-02-27T05:43:38.601Z,0.92
2023-02-27T05:44:38.605Z,0.62
2023-02-27T05:45:38.713Z,0.51
2023-02-27T05:46:38.585Z,0.62
2023-02-27T05:47:38.583Z,0.68
2023-02-27T05:48:38.572Z,0.61
2023-02-27T05:49:38.569Z,0.69
2023-02-27T05:50:38.668Z,0.70
2023-02-27T05:51:38.554Z,0.77
2023-02-27T05:52:38.549Z,0.83
2023-02-27T05:53:38.535Z,0.91
2023-02-27T05:54:38.534Z,0.83
2023-02-27T05:55:38.524Z,0.88
2023-02-27T05:56:38.520Z,0.76
2023-02-27T05:57:38.519Z,0.85
2023-02-27T05:58:38.514Z,0.70
2023-02-27T05:59:38.559Z,0.75
2023-02-27T06:00:38.482Z,0.53
2023-02-27T06:01:38.479Z,0.78
2023-02-27T06:02:38.484Z,0.90
2023-02-27T06:03:38.527Z,0.62
2023-02-27T06:04:38.462Z,0.87
2023-02-27T06:05:38.468Z,0.81
2023-02-27T06:06:38.455Z,0.87
2023-02-27T06:07:38.447Z,0.78
2023-02-27T06:08:38.434Z,1.06
2023-02-27T06:09:38.441Z,0.75
2023-02-27T06:10:38.446Z,0.73
2023-02-27T06:11:38.426Z,0.83
2023-02-27T06:12:38.421Z,0.77
2023-02-27T06:13:40.811Z,1.04
2023-02-27T06:14:38.398Z,0.94
2023-02-27T06:15:38.394Z,0.89
2023-02-27T06:16:38.467Z,0.72
2023-02-27T06:17:38.389Z,0.76
2023-02-27T06:18:38.385Z,0.72
2023-02-27T06:19:38.376Z,0.72
2023-02-27T06:20:38.424Z,0.80
2023-02-27T06:21:38.393Z,0.61
2023-02-27T06:22:38.346Z,0.86
2023-02-27T06:23:38.950Z,0.80
2023-02-27T06:24:38.335Z,0.88
2023-02-27T06:25:38.323Z,1.06
2023-02-27T06:26:38.320Z,0.88
2023-02-27T06:27:38.349Z,0.83
2023-02-27T06:28:38.363Z,0.80
2023-02-27T06:30:38.945Z,0.84
2023-02-27T07:41:40.576Z,2.80
2023-02-27T07:42:40.707Z,2.86
2023-02-27T07:43:40.698Z,2.44
2023-02-27T07:44:40.751Z,2.39
2023-02-27T07:45:40.805Z,2.56
2023-02-27T07:46:40.961Z,2.44
2023-02-27T09:27:46.053Z,3.72
2023-02-27T10:19:46.043Z,3.21
2023-02-27T10:28:46.049Z,3.24
2023-02-27T10:35:46.562Z,3.41
2023-02-27T10:43:46.556Z,2.88
2023-02-27T10:44:46.703Z,3.43
2023-02-27T10:58:45.944Z,2.94
2023-02-27T10:59:45.961Z,3.57
2023-02-27T11:00:45.979Z,3.14
2023-02-27T11:01:46.085Z,2.96
2023-02-27T11:02:45.998Z,2.95
2023-02-27T11:03:46.021Z,2.65
2023-02-27T11:04:46.109Z,2.33
2023-02-27T11:05:46.047Z,2.77
2023-02-27T11:06:46.062Z,3.08
2023-02-27T11:07:46.084Z,3.40
2023-02-27T11:08:46.089Z,2.77
2023-02-27T11:09:46.108Z,2.56
2023-02-27T11:10:46.124Z,2.84
2023-02-27T11:11:46.135Z,2.81
2023-02-27T11:12:46.180Z,3.67
2023-02-27T11:13:46.249Z,3.44
2023-02-27T11:14:46.245Z,2.55
2023-02-27T11:15:46.282Z,3.90
2023-02-27T11:16:46.302Z,4.40
2023-02-27T11:17:46.299Z,2.76
2023-02-27T11:18:46.324Z,3.20
2023-02-27T11:19:46.356Z,3.69
2023-02-27T11:38:47.150Z,2.80
2023-02-27T11:39:47.188Z,3.20
2023-02-27T11:40:47.206Z,3.25
2023-02-27T11:41:47.229Z,3.46
2023-02-27T11:42:47.245Z,3.16
2023-02-27T11:43:47.245Z,3.63
2023-02-27T11:44:49.966Z,3.60
2023-02-27T11:46:05.218Z,3.36
2023-02-27T11:47:47.225Z,2.89
2023-02-27T11:48:47.206Z,3.17
2023-02-27T11:49:47.215Z,3.14
2023-02-27T11:50:47.225Z,2.98
2023-02-27T11:51:47.206Z,3.03
2023-02-27T11:52:47.201Z,3.32
2023-02-27T11:53:47.218Z,3.21
2023-02-27T11:54:47.219Z,3.00
2023-02-27T11:55:47.228Z,2.52
2023-02-27T11:56:47.266Z,3.20
2023-02-27T11:57:47.249Z,2.75
2023-02-27T11:58:47.272Z,2.71
2023-02-27T11:59:47.296Z,2.57
2023-02-27T12:00:47.301Z,2.79
2023-02-27T12:01:47.327Z,2.92
2023-02-27T12:02:47.487Z,3.08
2023-02-27T12:03:47.434Z,2.62
2023-02-27T12:04:47.389Z,2.71
2023-02-27T12:05:47.418Z,2.51
2023-02-27T12:06:47.418Z,2.46
2023-02-27T12:07:47.443Z,2.66
2023-02-27T12:08:47.477Z,2.78
2023-02-27T12:09:47.484Z,2.47
2023-02-27T12:10:47.498Z,2.56
2023-02-27T12:11:47.531Z,2.70
2023-02-27T12:12:47.531Z,3.45
2023-02-27T12:13:47.574Z,2.69
2023-02-27T12:14:47.602Z,2.52
2023-02-27T12:15:47.660Z,2.91
2023-02-27T12:16:48.321Z,3.43
2023-02-27T12:17:47.637Z,2.54
2023-02-27T12:18:47.736Z,2.88
2023-02-27T12:19:47.682Z,2.59
2023-02-27T12:20:47.691Z,2.88
2023-02-27T12:21:49.487Z,2.78
2023-02-27T12:22:47.735Z,2.07
2023-02-27T12:23:47.750Z,3.20
2023-02-27T12:24:47.763Z,2.57
2023-02-27T12:25:47.789Z,2.58
2023-02-27T12:26:47.812Z,2.53
2023-02-27T12:27:47.830Z,2.34
2023-02-27T12:28:47.879Z,3.10
2023-02-27T12:29:47.910Z,2.80
2023-02-27T12:30:47.930Z,2.78
2023-02-27T12:31:48.013Z,3.20
2023-02-27T12:32:50.136Z,3.42
2023-02-27T12:33:48.026Z,3.11
2023-02-27T12:34:48.056Z,3.65
2023-02-27T12:35:48.102Z,2.92
2023-02-27T12:36:48.136Z,3.18
2023-02-27T12:37:48.172Z,2.87
2023-02-27T12:38:48.212Z,2.72
2023-02-27T12:39:48.243Z,3.18
2023-02-27T12:40:48.271Z,2.97
2023-02-27T12:41:48.317Z,3.33
2023-02-27T12:42:48.350Z,2.51
2023-02-27T12:43:48.385Z,3.31
2023-02-27T12:44:48.424Z,2.95
2023-02-27T12:45:48.465Z,3.07
2023-02-27T12:46:48.473Z,3.01
2023-02-27T12:47:49.093Z,3.37
2023-02-27T12:48:48.533Z,3.82
2023-02-27T12:49:48.569Z,2.90
2023-02-27T12:50:48.598Z,2.99
2023-02-27T12:51:49.107Z,2.53
2023-02-27T12:52:48.657Z,2.59
2023-02-27T12:53:48.767Z,2.85
2023-02-27T12:54:48.711Z,2.50
2023-02-27T12:55:48.740Z,3.05
2023-02-27T12:56:48.805Z,3.05
2023-02-27T12:57:48.802Z,2.74
2023-02-27T12:58:48.830Z,2.49
2023-02-27T12:59:48.873Z,2.96
2023-02-27T13:00:48.933Z,2.78
2023-02-27T13:01:48.906Z,3.12
2023-02-27T13:02:48.938Z,2.93
2023-02-27T13:03:49.110Z,2.97
2023-02-27T13:04:49.049Z,2.88
2023-02-27T13:05:49.033Z,3.84
2023-02-27T13:06:49.072Z,2.27
2023-02-27T13:07:49.108Z,2.89
2023-02-27T13:08:49.167Z,2.70
2023-02-27T13:09:49.184Z,2.56
2023-02-27T13:10:49.253Z,2.60
2023-02-27T13:11:49.296Z,2.51
2023-02-27T13:12:49.315Z,2.68
2023-02-27T13:13:49.344Z,2.43
2023-02-27T13:14:49.387Z,3.18
2023-02-27T13:15:49.398Z,2.57
2023-02-27T13:16:49.577Z,2.40
2023-02-27T13:17:49.475Z,2.63
2023-02-27T13:18:49.500Z,2.67
2023-02-27T13:19:49.560Z,2.26
2023-02-27T13:20:49.565Z,2.73
2023-02-27T13:21:49.623Z,2.18
2023-02-27T13:22:49.646Z,2.78
2023-02-27T13:23:49.680Z,2.98
2023-02-27T13:24:50.123Z,2.79
2023-02-27T13:25:49.769Z,2.74
2023-02-27T13:26:49.785Z,2.20
2023-02-27T13:27:49.832Z,2.74
2023-02-27T13:28:49.867Z,2.40
2023-02-27T13:29:49.917Z,2.47
2023-02-27T13:30:50.125Z,2.29
2023-02-27T13:31:50.192Z,2.57
2023-02-27T13:32:50.115Z,2.00
2023-02-27T13:33:50.078Z,2.62
2023-02-27T13:34:50.118Z,2.41
2023-02-27T13:35:50.207Z,2.40
2023-02-27T13:36:50.176Z,2.23
2023-02-27T13:37:50.299Z,2.51
2023-02-27T13:38:50.259Z,2.41
2023-02-27T13:39:50.305Z,2.23
2023-02-27T13:40:50.337Z,2.70
2023-02-27T13:41:50.377Z,2.39
2023-02-27T13:42:50.411Z,1.88
2023-02-27T13:43:52.784Z,2.22
2023-02-27T13:44:50.442Z,2.49
2023-02-27T13:45:50.535Z,2.61
2023-02-27T13:46:50.457Z,1.94
2023-02-27T13:47:50.422Z,2.29
2023-02-27T13:48:50.424Z,3.38
2023-02-27T13:49:50.419Z,2.46
2023-02-27T13:50:50.429Z,2.13
2023-02-27T13:51:50.408Z,2.23
2023-02-27T13:52:50.383Z,2.52
2023-02-27T13:53:50.374Z,2.41
2023-02-27T13:54:51.941Z,2.12
2023-02-27T13:55:50.368Z,2.74
2023-02-27T13:56:50.598Z,3.29
2023-02-27T13:57:50.354Z,2.72
2023-02-27T13:58:50.394Z,2.70
2023-02-27T13:59:50.356Z,2.04
2023-02-27T14:00:50.336Z,2.31
2023-02-27T14:01:50.319Z,2.05
2023-02-27T14:02:59.493Z,2.52
2023-02-27T14:03:51.311Z,2.31
2023-02-27T14:04:50.317Z,2.06
2023-02-27T14:05:50.310Z,2.72
2023-02-27T14:06:50.302Z,2.37
2023-02-27T14:07:50.280Z,2.35
2023-02-27T14:08:50.284Z,2.25
2023-02-27T14:09:50.315Z,2.20
2023-02-27T14:10:50.272Z,2.78
2023-02-27T14:11:50.255Z,2.49
2023-02-27T14:12:50.253Z,2.12
2023-02-27T14:13:50.272Z,2.39
2023-02-27T14:14:50.669Z,2.14
2023-02-27T14:15:50.327Z,2.20
2023-02-27T14:16:50.227Z,1.89
2023-02-27T14:17:52.492Z,2.18
2023-02-27T14:18:51.254Z,2.22
2023-02-27T14:19:50.215Z,2.43
2023-02-27T14:20:50.200Z,2.80
2023-02-27T14:21:50.191Z,2.79
2023-02-27T14:22:50.241Z,2.85
2023-02-27T14:23:50.176Z,2.80
2023-02-27T14:25:02.085Z,2.28
2023-02-27T14:25:51.187Z,2.50
2023-02-27T14:26:50.270Z,2.39
2023-02-27T14:27:50.144Z,3.31
2023-02-27T14:28:50.223Z,1.95
2023-02-27T14:29:50.134Z,2.49
2023-02-27T14:30:50.176Z,2.03
2023-02-27T14:31:50.161Z,2.07
2023-02-27T14:32:50.119Z,2.62
2023-02-27T14:33:50.121Z,2.22
2023-02-27T14:34:50.130Z,1.89
2023-02-27T14:35:50.204Z,2.01
2023-02-27T14:36:51.137Z,2.41
2023-02-27T14:37:50.294Z,2.15
2023-02-27T14:38:50.348Z,2.34
2023-02-27T14:39:50.393Z,2.30
2023-02-27T14:40:50.508Z,2.44
2023-02-27T14:41:50.645Z,2.15
2023-02-27T14:42:50.542Z,1.91
2023-02-27T14:43:51.140Z,2.10
2023-02-27T14:44:50.659Z,2.43
2023-02-27T14:45:50.715Z,2.12
2023-02-27T14:46:50.758Z,2.28
2023-02-27T14:47:50.832Z,2.01
2023-02-27T14:48:50.950Z,2.06
2023-02-27T14:49:50.906Z,2.00
2023-02-27T14:50:53.218Z,2.19
2023-02-27T14:51:51.194Z,2.05
2023-02-27T14:52:51.203Z,2.37
2023-02-27T14:53:51.557Z,2.39
2023-02-27T14:54:51.298Z,2.36
2023-02-27T14:55:51.423Z,2.07
2023-02-27T14:56:51.384Z,2.23
2023-02-27T14:57:51.405Z,1.94
2023-02-27T14:59:03.427Z,2.22
2023-02-27T14:59:52.666Z,2.39
2023-02-27T15:00:51.716Z,2.10
2023-02-27T15:01:51.843Z,2.09
2023-02-27T15:02:51.834Z,2.28
2023-02-27T15:03:52.058Z,1.86
2023-02-27T15:04:51.966Z,2.46
2023-02-27T15:05:51.955Z,2.40
2023-02-27T15:06:51.929Z,1.80
2023-02-27T15:07:51.943Z,2.43
2023-02-27T15:08:51.953Z,2.47
2023-02-27T15:09:52.025Z,2.30
2023-02-27T15:10:52.028Z,2.06
2023-02-27T15:12:02.953Z,2.58
2023-02-27T15:12:52.965Z,2.01
2023-02-27T15:13:51.936Z,1.91
2023-02-27T15:14:51.932Z,1.87
2023-02-27T15:15:52.812Z,2.02
2023-02-27T15:16:54.040Z,2.47
2023-02-27T15:17:51.913Z,2.30
2023-02-27T15:18:51.899Z,2.71
2023-02-27T15:19:51.904Z,1.93
2023-02-27T15:20:51.954Z,2.35
2023-02-27T15:21:52.672Z,2.39
2023-02-27T15:22:51.892Z,2.76
2023-02-27T15:23:51.872Z,2.06
2023-02-27T15:24:51.860Z,2.00
2023-02-27T15:25:51.877Z,1.92
2023-02-27T15:26:51.933Z,2.35
2023-02-27T15:27:51.838Z,2.37
2023-02-27T15:28:51.826Z,1.96
2023-02-27T15:29:51.954Z,2.10
2023-02-27T15:30:51.877Z,1.80
2023-02-27T15:31:51.846Z,1.65
2023-02-27T15:32:53.639Z,2.10
2023-02-27T15:33:51.798Z,2.01
2023-02-27T15:34:51.792Z,2.30
2023-02-27T15:35:51.893Z,1.82
2023-02-27T15:36:51.769Z,1.88
2023-02-27T15:37:51.772Z,2.05
2023-02-27T15:38:51.757Z,2.07
2023-02-27T15:39:51.748Z,2.30
2023-02-27T15:40:51.823Z,2.07
2023-02-27T15:41:51.745Z,2.08
2023-02-27T15:42:51.741Z,2.34
2023-02-27T15:43:51.729Z,2.15
2023-02-27T15:44:51.713Z,2.29
2023-02-27T15:45:51.709Z,2.25
2023-02-27T15:46:51.790Z,1.93
2023-02-27T15:47:51.697Z,2.13
2023-02-27T15:48:51.774Z,1.69
2023-02-27T15:49:51.774Z,2.51
2023-02-27T15:50:51.682Z,2.14
2023-02-27T15:51:51.649Z,2.22
2023-02-27T15:52:51.656Z,2.28
2023-02-27T15:53:51.704Z,2.07
2023-02-27T15:54:51.636Z,2.14
2023-02-27T15:55:51.643Z,1.97
2023-02-27T15:56:51.618Z,2.21
2023-02-27T15:58:02.320Z,1.74
2023-02-27T15:58:52.647Z,2.10
2023-02-27T15:59:51.592Z,2.03
2023-02-27T16:00:51.613Z,2.05
2023-02-27T16:01:51.585Z,2.37
2023-02-27T16:02:51.620Z,1.97
2023-02-27T16:03:51.585Z,1.98
2023-02-27T16:04:51.558Z,1.80
2023-02-27T16:05:51.676Z,1.96
2023-02-27T16:06:51.555Z,2.47
2023-02-27T16:07:51.537Z,2.15
2023-02-27T16:08:51.534Z,1.96
2023-02-27T16:09:51.570Z,2.03
2023-02-27T16:10:51.528Z,1.61
2023-02-27T16:11:51.618Z,2.15
2023-02-27T16:12:51.525Z,2.14
2023-02-27T16:13:51.498Z,2.16
2023-02-27T16:14:51.486Z,2.04
2023-02-27T16:15:51.525Z,1.89
2023-02-27T16:16:51.490Z,1.84
2023-02-27T16:17:51.472Z,1.79
2023-02-27T16:18:51.472Z,1.94
2023-02-27T16:19:51.466Z,1.99
2023-02-27T16:20:51.482Z,2.14
2023-02-27T16:21:51.486Z,2.09
2023-02-27T16:22:51.522Z,1.83
2023-02-27T16:23:51.534Z,2.19
2023-02-27T16:24:51.568Z,1.84
2023-02-27T16:25:51.583Z,1.83
2023-02-27T16:26:51.621Z,1.73
2023-02-27T16:27:51.631Z,2.05
2023-02-27T16:28:51.668Z,2.31
2023-02-27T16:29:51.686Z,2.27
2023-02-27T16:30:51.726Z,2.28
2023-02-27T16:31:51.860Z,2.08
2023-02-27T16:32:51.757Z,2.22
2023-02-27T16:33:51.803Z,2.03
2023-02-27T16:34:51.806Z,2.20
2023-02-27T16:35:51.861Z,2.23
2023-02-27T16:36:51.858Z,2.28
2023-02-27T16:37:51.893Z,2.00
2023-02-27T16:38:51.913Z,1.77
2023-02-27T16:39:51.952Z,2.31
2023-02-27T16:40:52.061Z,2.07
2023-02-27T16:41:51.987Z,2.43
2023-02-27T16:42:52.010Z,2.16
2023-02-27T16:43:52.036Z,1.84
2023-02-27T16:44:52.082Z,2.22
2023-02-27T16:45:52.153Z,1.71
2023-02-27T16:46:52.119Z,1.92
2023-02-27T16:47:52.161Z,1.92
2023-02-27T16:48:52.183Z,2.00
2023-02-27T16:49:52.192Z,1.85
2023-02-27T16:50:52.217Z,1.92
2023-02-27T16:51:52.271Z,2.36
2023-02-27T16:52:52.693Z,2.10
2023-02-27T16:53:52.331Z,2.03
2023-02-27T16:54:52.330Z,2.21
2023-02-27T16:55:52.359Z,2.21
2023-02-27T16:56:53.194Z,1.83
2023-02-27T16:57:52.413Z,2.10
2023-02-27T16:58:52.428Z,2.19
2023-02-27T16:59:52.451Z,1.55
2023-02-27T17:00:52.528Z,2.29
2023-02-27T17:01:53.191Z,1.95
2023-02-27T17:02:52.548Z,1.97
2023-02-27T17:03:52.560Z,1.86
2023-02-27T17:04:52.671Z,1.97
2023-02-27T17:05:52.679Z,1.64
2023-02-27T17:06:52.643Z,2.21
2023-02-27T17:07:52.656Z,2.15
2023-02-27T17:08:52.813Z,1.88
2023-02-27T17:09:52.739Z,2.31
2023-02-27T17:10:52.739Z,1.88
2023-02-27T17:11:52.752Z,2.02
2023-02-27T17:12:52.778Z,2.00
2023-02-27T17:13:52.806Z,1.93
2023-02-27T17:14:52.827Z,1.70
2023-02-27T17:15:52.858Z,1.88
2023-02-27T17:16:52.962Z,1.92
2023-02-27T17:17:52.916Z,2.22
2023-02-27T17:18:52.936Z,1.83
2023-02-27T17:19:52.991Z,2.22
2023-02-27T17:20:52.976Z,1.82
2023-02-27T17:21:53.002Z,1.91
2023-02-27T17:22:53.029Z,2.25
2023-02-27T17:23:53.062Z,2.19
2023-02-27T19:05:55.955Z,1.82
2023-02-27T19:06:55.993Z,2.01
2023-02-27T19:07:56.021Z,2.36
2023-02-27T19:08:56.059Z,2.66
2023-02-27T19:09:56.101Z,2.36
2023-02-27T19:10:56.121Z,2.56
2023-02-27T19:11:56.150Z,2.35
2023-02-27T19:12:56.191Z,1.82
2023-02-27T19:13:56.228Z,2.10
2023-02-27T19:14:56.245Z,1.98
2023-02-27T19:15:56.321Z,2.13
2023-02-27T19:16:56.320Z,2.07
2023-02-27T19:17:56.362Z,2.65
2023-02-27T19:18:56.433Z,1.71
2023-02-27T19:19:56.433Z,2.45
2023-02-27T19:20:57.438Z,1.87
2023-02-27T19:21:56.500Z,1.86
2023-02-27T19:22:56.540Z,2.42
2023-02-27T19:23:56.580Z,2.28
2023-02-27T19:24:56.598Z,2.23
2023-02-27T19:25:56.651Z,2.00
2023-02-27T19:26:56.680Z,2.09
2023-02-27T19:27:56.769Z,2.38
2023-02-27T19:28:56.785Z,2.08
2023-02-27T19:29:57.263Z,1.93
2023-02-27T19:30:56.870Z,2.09
2023-02-27T19:34:56.949Z,2.33
2023-02-27T19:37:57.055Z,2.18
2023-02-27T19:38:57.097Z,2.14
2023-02-27T19:39:57.112Z,2.62
2023-02-27T19:40:57.152Z,2.06
2023-02-27T19:41:57.191Z,2.16
2023-02-27T19:42:57.241Z,2.38
2023-02-27T19:43:57.263Z,2.05
2023-02-27T19:44:57.283Z,1.98
2023-02-27T19:45:57.340Z,2.40
2023-02-27T19:46:57.368Z,2.04
2023-02-27T19:47:57.393Z,1.95
2023-02-27T19:48:57.440Z,2.60
2023-02-27T19:49:57.472Z,1.93
2023-02-27T19:50:57.541Z,2.26
2023-02-27T19:51:57.542Z,1.95
2023-02-27T19:52:57.593Z,2.45
2023-02-27T19:53:57.630Z,2.23
2023-02-27T19:54:57.658Z,2.31
2023-02-27T19:55:57.780Z,2.21
2023-02-27T19:56:57.746Z,2.26
2023-02-27T19:57:57.783Z,2.06
2023-02-27T19:58:57.843Z,1.98
2023-02-27T19:59:58.759Z,2.30
2023-02-27T20:00:57.943Z,2.39
2023-02-27T20:01:57.951Z,2.53
2023-02-27T20:02:57.988Z,1.93
2023-02-27T20:03:58.052Z,2.30
2023-02-27T20:04:58.111Z,2.30
2023-02-27T20:05:58.104Z,2.24
2023-02-27T20:06:58.267Z,2.19
2023-02-27T20:07:58.209Z,2.59
2023-02-27T20:08:58.240Z,2.53
2023-02-27T20:09:58.281Z,2.90
2023-02-27T20:10:58.319Z,2.51
2023-02-27T20:11:58.358Z,2.05
2023-02-27T20:12:58.398Z,2.39
2023-02-27T20:13:58.452Z,2.06
2023-02-27T20:14:58.505Z,1.98
2023-02-27T20:15:58.534Z,1.94
2023-02-27T20:16:58.601Z,2.25
2023-02-27T20:17:58.618Z,1.70
2023-02-27T20:18:58.671Z,2.60
2023-02-27T20:19:58.706Z,2.00
2023-02-27T20:20:58.734Z,2.06
2023-02-27T20:21:58.784Z,2.20
2023-02-27T20:22:58.828Z,2.28
2023-02-27T20:23:58.881Z,1.88
2023-02-27T20:24:58.918Z,1.91
2023-02-27T20:25:58.981Z,2.58
2023-02-27T20:26:59.324Z,2.42
2023-02-27T20:27:59.058Z,2.18
2023-02-27T20:28:59.128Z,2.04
2023-02-27T20:29:59.150Z,2.52
2023-02-27T20:30:59.209Z,2.51
2023-02-27T20:31:59.360Z,2.46
2023-02-27T20:32:59.315Z,2.05
2023-02-27T20:33:59.356Z,2.08
2023-02-27T20:34:59.393Z,2.03
2023-02-27T20:35:59.499Z,2.34
2023-02-27T20:36:59.573Z,2.07
2023-02-27T20:37:59.531Z,1.88
2023-02-27T20:38:59.584Z,2.45
2023-02-27T20:39:59.628Z,1.98
2023-02-27T20:40:59.677Z,1.96
2023-02-27T20:41:59.713Z,2.38
2023-02-27T20:42:59.758Z,2.63
2023-02-27T20:43:59.821Z,2.36
2023-02-27T20:44:59.873Z,2.51
2023-02-27T20:45:59.961Z,2.21
2023-02-27T20:46:59.953Z,2.43
2023-02-27T20:48:00.004Z,2.44
2023-02-27T20:49:00.042Z,1.99
2023-02-27T20:50:00.088Z,2.14
2023-02-27T20:51:00.129Z,1.91
2023-02-27T20:52:00.168Z,1.88
2023-02-27T20:53:00.223Z,2.09
2023-02-27T20:54:00.269Z,2.33
2023-02-27T20:55:00.330Z,2.02
2023-02-27T20:56:00.375Z,2.48
2023-02-27T20:57:00.417Z,2.01
2023-02-27T20:58:00.458Z,2.47
2023-02-27T20:59:00.505Z,2.37
2023-02-27T21:00:00.579Z,2.28
2023-02-27T21:01:00.642Z,2.26
2023-02-27T21:02:00.653Z,2.38
2023-02-27T21:03:00.734Z,2.32
2023-02-27T21:04:00.785Z,2.05
2023-02-27T21:05:00.931Z,1.97
2023-02-27T21:06:00.838Z,2.06
2023-02-27T21:07:00.880Z,2.16
2023-02-27T21:12:01.124Z,2.19
2023-02-27T22:44:06.817Z,1.65
2023-02-27T22:46:05.993Z,2.26
2023-02-27T22:48:06.154Z,2.04
2023-02-27T22:49:06.132Z,2.13
2023-02-27T22:50:06.229Z,2.18
2023-02-27T22:52:06.268Z,2.13
2023-02-27T22:53:06.320Z,2.44
2023-02-27T22:54:06.382Z,2.02
2023-02-27T22:55:06.468Z,1.81
2023-02-27T22:56:06.454Z,1.96
2023-02-27T22:57:06.507Z,2.02
2023-02-27T22:58:06.556Z,2.20
2023-02-27T22:59:06.614Z,1.70
2023-02-27T23:00:06.679Z,2.38
2023-02-27T23:01:06.720Z,2.11
2023-02-27T23:02:06.894Z,1.99
2023-02-27T23:03:06.825Z,1.81
2023-02-27T23:04:08.003Z,1.82
2023-02-27T23:05:06.937Z,2.07
2023-02-27T23:06:07.051Z,2.21
2023-02-27T23:07:07.043Z,1.89
2023-02-27T23:08:07.168Z,2.02
2023-02-27T23:09:07.158Z,2.20
2023-02-27T23:10:07.211Z,1.78
2023-02-27T23:11:07.260Z,1.77
2023-02-27T23:12:07.320Z,2.21
2023-02-27T23:13:07.373Z,2.14
2023-02-27T23:14:07.510Z,2.40
2023-02-27T23:15:07.569Z,2.25
2023-02-27T23:16:07.571Z,2.22
2023-02-27T23:17:07.589Z,2.28
2023-02-27T23:18:07.652Z,2.00
2023-02-27T23:19:07.730Z,2.45
2023-02-27T23:20:07.775Z,1.69
2023-02-27T23:21:07.831Z,2.20
2023-02-27T23:22:07.890Z,2.35
2023-02-27T23:23:07.952Z,1.74
2023-02-27T23:24:08.026Z,2.29
2023-02-27T23:25:08.081Z,1.94
2023-02-27T23:26:08.136Z,1.71
2023-02-27T23:27:24.544Z,2.00
2023-02-27T23:28:09.184Z,2.18
2023-02-27T23:29:08.181Z,2.02
2023-02-27T23:30:08.225Z,1.69
2023-02-27T23:31:08.235Z,2.09
2023-02-27T23:32:08.281Z,2.07
2023-02-27T23:33:08.167Z,1.96
2023-02-27T23:34:08.156Z,2.29
2023-02-27T23:35:08.144Z,2.24
2023-02-27T23:36:08.201Z,1.91
2023-02-27T23:37:08.240Z,2.06
2023-02-27T23:38:08.304Z,2.14
2023-02-27T23:39:08.432Z,1.72
2023-02-27T23:40:08.426Z,1.89
2023-02-27T23:41:08.485Z,2.28
2023-02-27T23:42:08.552Z,2.02
2023-02-27T23:43:08.605Z,2.65
2023-02-27T23:44:08.673Z,2.15
2023-02-27T23:45:08.753Z,2.33
2023-02-27T23:46:08.919Z,2.27
2023-02-27T23:47:08.865Z,1.98
2023-02-27T23:48:08.934Z,2.13
2023-02-27T23:49:09.850Z,2.09
2023-02-27T23:50:09.039Z,2.08
2023-02-27T23:51:09.095Z,2.03
2023-02-27T23:52:09.167Z,2.02
2023-02-27T23:53:09.201Z,1.87
2023-02-27T23:54:09.262Z,2.02
2023-02-27T23:55:09.310Z,2.21
2023-02-27T23:56:09.382Z,2.14
2023-02-27T23:57:09.438Z,1.89
2023-02-27T23:58:09.500Z,2.08
2023-02-27T23:59:09.552Z,2.53
